createdAt,value
2023-02-11T00:02:10.728Z,7.47
2023-02-11T00:04:37.158Z,7.07
2023-02-11T00:07:03.542Z,7.31
2023-02-11T00:09:31.849Z,7.23
2023-02-11T00:11:58.351Z,6.91
2023-02-11T00:14:24.779Z,6.79
2023-02-11T00:16:51.353Z,6.91
2023-02-11T00:19:19.043Z,6.83
2023-02-11T00:21:45.458Z,6.76
2023-02-11T00:24:11.926Z,6.80
2023-02-11T00:26:38.288Z,6.88
2023-02-11T00:29:05.410Z,6.73
2023-02-11T00:31:31.946Z,7.05
2023-02-11T00:33:58.393Z,6.93
2023-02-11T00:36:27.970Z,7.04
2023-02-11T00:38:55.760Z,7.03
2023-02-11T00:41:22.672Z,7.15
2023-02-11T00:43:49.462Z,7.18
2023-02-11T00:46:16.234Z,6.93
2023-02-11T00:48:42.681Z,6.87
2023-02-11T00:51:09.679Z,6.82
2023-02-11T00:53:37.900Z,6.96
2023-02-11T00:56:05.218Z,6.60
2023-02-11T00:58:31.650Z,6.80
2023-02-11T01:00:58.416Z,6.78
2023-02-11T01:03:25.253Z,6.63
2023-02-11T01:05:51.963Z,6.90
2023-02-11T01:08:18.567Z,6.78
2023-02-11T01:10:53.937Z,6.81
2023-02-11T01:13:20.509Z,6.93
2023-02-11T01:15:46.924Z,6.73
2023-02-11T01:18:13.353Z,7.05
2023-02-11T01:20:39.748Z,7.00
2023-02-11T01:23:06.123Z,6.63
2023-02-11T01:25:32.483Z,6.40
2023-02-11T01:28:00.243Z,6.66
2023-02-11T01:30:26.880Z,6.89
2023-02-11T01:32:53.243Z,6.79
2023-02-11T01:35:19.695Z,6.77
2023-02-11T01:37:46.081Z,6.60
2023-02-11T01:40:15.342Z,6.66
2023-02-11T01:42:42.166Z,6.90
2023-02-11T01:45:53.312Z,6.66
2023-02-11T01:48:22.820Z,6.57
2023-02-11T01:50:52.646Z,6.74
2023-02-11T01:53:19.344Z,6.37
2023-02-11T01:55:45.759Z,6.71
2023-02-11T01:58:12.130Z,6.77
2023-02-11T02:00:38.964Z,6.80
2023-02-11T02:03:12.890Z,7.04
2023-02-11T02:05:46.794Z,6.93
2023-02-11T02:08:19.171Z,6.46
2023-02-11T02:10:48.479Z,6.94
2023-02-11T02:13:15.398Z,6.85
2023-02-11T02:15:45.645Z,7.07
2023-02-11T02:18:29.300Z,7.03
2023-02-11T02:21:22.967Z,7.15
2023-02-11T02:24:31.095Z,7.23
2023-02-11T02:27:27.354Z,7.08
2023-02-11T02:30:19.353Z,7.17
2023-02-11T02:33:10.491Z,7.16
2023-02-11T02:35:53.433Z,6.95
2023-02-11T02:38:25.418Z,7.13
2023-02-11T02:40:55.760Z,6.57
2023-02-11T02:43:23.807Z,6.74
2023-02-11T02:45:50.496Z,7.05
2023-02-11T02:48:27.529Z,7.17
2023-02-11T02:51:06.558Z,7.33
2023-02-11T02:53:44.401Z,7.36
2023-02-11T02:56:18.439Z,6.88
2023-02-11T02:59:03.974Z,7.25
2023-02-11T03:01:39.589Z,7.03
2023-02-11T03:04:16.726Z,7.30
2023-02-11T03:06:51.999Z,6.87
2023-02-11T03:09:25.347Z,7.41
2023-02-11T03:11:51.845Z,7.07
2023-02-11T03:14:19.189Z,6.93
2023-02-11T03:16:47.551Z,7.40
2023-02-11T03:19:20.272Z,7.09
2023-02-11T03:21:49.361Z,7.49
2023-02-11T03:24:20.755Z,7.12
2023-02-11T03:26:50.016Z,6.90
2023-02-11T03:29:22.998Z,6.81
2023-02-11T03:31:58.668Z,6.88
2023-02-11T03:34:32.467Z,7.15
2023-02-11T03:37:03.625Z,6.88
2023-02-11T03:39:35.385Z,7.24
2023-02-11T03:42:03.989Z,7.55
2023-02-11T03:44:35.884Z,7.23
2023-02-11T03:47:04.917Z,7.30
2023-02-11T03:49:35.426Z,7.34
2023-02-11T03:52:05.290Z,7.25
2023-02-11T03:54:32.030Z,7.11
2023-02-11T03:57:00.895Z,7.17
2023-02-11T03:59:27.524Z,7.31
2023-02-11T04:01:54.541Z,7.20
2023-02-11T04:04:20.993Z,7.30
2023-02-11T04:06:48.722Z,6.73
2023-02-11T04:09:15.096Z,7.43
2023-02-11T04:11:41.553Z,6.93
2023-02-11T04:14:07.937Z,7.08
2023-02-11T04:16:34.352Z,7.27
2023-02-11T04:19:00.776Z,7.25
2023-02-11T04:21:27.147Z,7.04
2023-02-11T04:23:54.833Z,7.27
2023-02-11T04:26:21.213Z,7.32
2023-02-11T04:28:47.549Z,6.79
2023-02-11T04:31:13.972Z,7.42
2023-02-11T04:33:40.404Z,6.99
2023-02-11T04:36:07.737Z,6.87
2023-02-11T04:38:34.128Z,7.22
2023-02-11T04:41:01.820Z,7.08
2023-02-11T04:43:28.170Z,6.87
2023-02-11T04:45:56.875Z,6.82
2023-02-11T04:48:23.248Z,7.31
2023-02-11T04:50:49.582Z,7.33
2023-02-11T04:53:15.932Z,7.34
2023-02-11T04:55:42.314Z,7.19
2023-02-11T04:58:10.003Z,7.15
2023-02-11T05:00:36.376Z,7.22
2023-02-11T05:03:02.780Z,7.41
2023-02-11T05:05:29.144Z,7.26
2023-02-11T05:07:55.488Z,7.19
2023-02-11T05:10:21.886Z,7.30
2023-02-11T05:12:48.639Z,7.06
2023-02-11T05:15:16.609Z,7.41
2023-02-11T05:17:42.980Z,7.27
2023-02-11T05:20:10.566Z,7.38
2023-02-11T05:22:36.987Z,6.81
2023-02-11T05:25:03.539Z,7.26
2023-02-11T05:27:29.908Z,7.44
2023-02-11T05:29:56.238Z,7.29
2023-02-11T05:32:24.137Z,7.40
2023-02-11T05:34:50.515Z,7.45
2023-02-11T05:37:16.999Z,6.92
2023-02-11T05:39:43.482Z,7.13
2023-02-11T05:42:09.929Z,7.24
2023-02-11T05:44:36.486Z,7.01
2023-02-11T05:47:03.098Z,7.30
2023-02-11T05:49:30.930Z,7.08
2023-02-11T05:51:57.321Z,7.17
2023-02-11T05:54:23.719Z,7.04
2023-02-11T05:56:50.066Z,7.08
2023-02-11T05:59:16.433Z,6.94
2023-02-11T06:01:43.336Z,7.28
2023-02-11T06:04:09.757Z,7.22
2023-02-11T06:06:37.506Z,7.36
2023-02-11T06:09:04.471Z,7.14
2023-02-11T06:11:30.839Z,7.22
2023-02-11T06:13:57.181Z,6.72
2023-02-11T06:16:23.673Z,7.15
2023-02-11T06:18:50.266Z,7.37
2023-02-11T06:21:16.613Z,7.51
2023-02-11T06:23:44.378Z,7.57
2023-02-11T06:26:16.931Z,7.48
2023-02-11T06:28:43.370Z,7.27
2023-02-11T06:31:10.178Z,7.49
2023-02-11T06:33:36.602Z,7.56
2023-02-11T06:36:04.449Z,7.58
2023-02-11T06:38:31.176Z,7.57
2023-02-11T06:40:58.865Z,7.13
2023-02-11T06:43:25.233Z,7.36
2023-02-11T06:45:55.583Z,7.48
2023-02-11T06:48:22.929Z,7.41
2023-02-11T06:50:49.276Z,7.50
2023-02-11T06:53:15.838Z,7.37
2023-02-11T06:55:42.190Z,7.43
2023-02-11T06:58:10.013Z,7.47
2023-02-11T07:00:36.676Z,7.41
2023-02-11T07:03:03.363Z,7.18
2023-02-11T07:05:29.836Z,7.58
2023-02-11T07:07:57.079Z,7.49
2023-02-11T07:10:23.438Z,7.07
2023-02-11T07:12:49.784Z,7.50
2023-02-11T07:15:18.030Z,7.48
2023-02-11T07:17:44.371Z,7.47
2023-02-11T07:20:11.154Z,7.30
2023-02-11T07:22:37.825Z,7.26
2023-02-11T07:25:04.800Z,7.39
2023-02-11T07:27:31.150Z,7.45
2023-02-11T07:29:57.517Z,7.57
2023-02-11T07:32:25.552Z,7.43
2023-02-11T07:34:51.999Z,7.60
2023-02-11T07:37:18.650Z,7.61
2023-02-11T07:39:45.025Z,7.28
2023-02-11T07:42:11.449Z,7.26
2023-02-11T07:44:37.887Z,7.73
2023-02-11T07:47:04.364Z,7.96
2023-02-11T07:49:32.150Z,7.37
2023-02-11T07:51:58.525Z,7.74
2023-02-11T07:54:24.898Z,7.64
2023-02-11T07:56:51.295Z,7.66
2023-02-11T07:59:17.665Z,7.57
2023-02-11T08:01:44.095Z,7.66
2023-02-11T08:04:10.503Z,7.44
2023-02-11T08:06:41.990Z,7.66
2023-02-11T08:09:10.893Z,7.73
2023-02-11T08:11:37.262Z,7.59
2023-02-11T08:14:03.830Z,7.62
2023-02-11T08:16:34.018Z,7.22
2023-02-11T08:19:02.115Z,7.43
2023-02-11T08:21:29.094Z,7.56
2023-02-11T08:23:57.165Z,7.53
2023-02-11T08:26:25.798Z,7.29
2023-02-11T08:28:54.324Z,7.50
2023-02-11T08:31:23.392Z,7.47
2023-02-11T08:33:49.981Z,7.60
2023-02-11T08:36:18.341Z,7.49
2023-02-11T08:38:45.013Z,7.44
2023-02-11T08:41:13.816Z,7.59
2023-02-11T08:43:41.151Z,7.77
2023-02-11T08:46:08.437Z,7.61
2023-02-11T08:48:34.941Z,7.53
2023-02-11T08:51:06.219Z,7.51
2023-02-11T08:53:32.572Z,7.56
2023-02-11T08:55:58.932Z,7.41
2023-02-11T08:58:26.675Z,7.61
2023-02-11T09:00:53.710Z,7.78
2023-02-11T09:03:20.394Z,7.63
2023-02-11T09:05:48.709Z,7.47
2023-02-11T09:08:15.646Z,7.83
2023-02-11T09:10:42.038Z,7.50
2023-02-11T09:13:08.918Z,7.43
2023-02-11T09:15:36.971Z,7.63
2023-02-11T09:18:04.752Z,7.71
2023-02-11T09:20:31.930Z,7.55
2023-02-11T09:22:59.025Z,7.62
2023-02-11T09:25:25.540Z,7.74
2023-02-11T09:27:52.068Z,7.66
2023-02-11T09:30:18.997Z,7.57
2023-02-11T09:32:46.739Z,7.73
2023-02-11T09:35:13.159Z,7.93
2023-02-11T09:37:39.524Z,7.52
2023-02-11T09:40:06.661Z,7.83
2023-02-11T09:42:45.433Z,7.59
2023-02-11T09:45:18.036Z,7.67
2023-02-11T09:47:50.964Z,7.71
2023-02-11T09:50:22.189Z,7.50
2023-02-11T09:52:55.359Z,7.68
2023-02-11T09:55:25.017Z,7.93
2023-02-11T09:57:51.503Z,8.18
2023-02-11T10:00:21.163Z,7.97
2023-02-11T10:03:07.207Z,7.69
2023-02-11T10:05:56.672Z,7.94
2023-02-11T10:08:34.515Z,7.54
2023-02-11T10:11:08.495Z,7.59
2023-02-11T10:13:54.955Z,7.95
2023-02-11T10:16:40.116Z,8.33
2023-02-11T10:19:20.618Z,8.36
2023-02-11T10:21:57.940Z,8.33
2023-02-11T10:24:24.967Z,8.28
2023-02-11T10:26:52.146Z,8.02
2023-02-11T10:29:35.347Z,7.95
2023-02-11T10:32:07.275Z,7.87
2023-02-11T10:34:41.012Z,7.82
2023-02-11T10:37:09.209Z,7.53
2023-02-11T10:39:35.549Z,7.54
2023-02-11T10:42:07.414Z,7.75
2023-02-11T10:44:37.201Z,7.72
2023-02-11T10:47:13.250Z,7.64
2023-02-11T10:49:42.572Z,7.68
2023-02-11T10:52:19.456Z,7.70
2023-02-11T10:54:56.921Z,7.64
2023-02-11T10:57:27.751Z,7.95
2023-02-11T10:59:58.442Z,7.76
2023-02-11T11:02:29.094Z,8.04
2023-02-11T11:04:58.709Z,7.80
2023-02-11T11:07:27.729Z,7.90
2023-02-11T11:09:55.823Z,7.61
2023-02-11T11:12:28.152Z,7.78
2023-02-11T11:14:56.114Z,8.21
2023-02-11T11:17:22.619Z,7.78
2023-02-11T11:19:48.986Z,8.03
2023-02-11T11:22:22.489Z,7.87
2023-02-11T11:24:50.017Z,7.62
2023-02-11T11:27:18.875Z,7.88
2023-02-11T11:29:48.406Z,8.12
2023-02-11T11:32:20.871Z,8.00
2023-02-11T11:34:51.087Z,7.93
2023-02-11T11:37:24.457Z,8.02
2023-02-11T11:39:56.703Z,8.08
2023-02-11T11:42:26.609Z,7.98
2023-02-11T11:44:57.587Z,8.25
2023-02-11T11:47:30.333Z,8.16
2023-02-11T11:50:25.706Z,8.17
2023-02-11T11:52:59.639Z,8.32
2023-02-11T11:55:28.511Z,8.40
2023-02-11T11:57:54.967Z,8.40
2023-02-11T12:00:28.110Z,8.17
2023-02-11T12:03:19.881Z,8.41
2023-02-11T12:05:53.531Z,8.25
2023-02-11T12:08:29.009Z,8.21
2023-02-11T12:11:08.737Z,7.93
2023-02-11T12:13:45.309Z,8.18
2023-02-11T12:16:22.668Z,8.04
2023-02-11T12:19:13.633Z,8.05
2023-02-11T12:21:48.255Z,8.08
2023-02-11T12:24:32.203Z,8.04
2023-02-11T12:27:06.957Z,8.09
2023-02-11T12:29:50.947Z,7.93
2023-02-11T12:32:32.058Z,8.03
2023-02-11T12:35:15.767Z,8.38
2023-02-11T12:38:03.384Z,8.41
2023-02-11T12:40:39.796Z,8.75
2023-02-11T12:43:18.982Z,8.46
2023-02-11T12:46:07.750Z,8.69
2023-02-11T12:48:51.472Z,8.65
2023-02-11T12:51:30.487Z,8.71
2023-02-11T12:54:14.364Z,8.86
2023-02-11T12:56:46.567Z,8.82
2023-02-11T12:59:20.567Z,8.79
2023-02-11T13:01:49.542Z,9.03
2023-02-11T13:04:21.287Z,8.50
2023-02-11T13:06:51.809Z,8.30
2023-02-11T13:09:22.686Z,8.38
2023-02-11T13:11:54.559Z,8.44
2023-02-11T13:14:26.632Z,8.37
2023-02-11T13:16:54.975Z,8.41
2023-02-11T13:19:28.391Z,8.59
2023-02-11T13:22:04.923Z,8.98
2023-02-11T13:24:39.898Z,9.48
2023-02-11T13:27:16.386Z,9.09
2023-02-11T13:30:18.404Z,9.08
2023-02-11T13:33:16.348Z,8.76
2023-02-11T13:35:47.658Z,8.87
2023-02-11T13:38:20.216Z,8.76
2023-02-11T13:40:59.920Z,8.94
2023-02-11T13:43:30.682Z,9.02
2023-02-11T13:45:59.580Z,9.04
2023-02-11T13:48:29.129Z,9.11
2023-02-11T13:50:58.753Z,9.08
2023-02-11T13:53:25.945Z,8.81
2023-02-11T13:56:06.161Z,8.81
2023-02-11T13:58:46.354Z,8.42
2023-02-11T14:01:39.054Z,8.75
2023-02-11T14:04:19.126Z,8.87
2023-02-11T14:07:18.031Z,9.04
2023-02-11T14:09:44.650Z,9.16
2023-02-11T14:12:31.221Z,8.92
2023-02-11T14:15:03.746Z,9.16
2023-02-11T14:17:32.672Z,9.07
2023-02-11T14:20:00.747Z,9.01
2023-02-11T14:22:29.702Z,8.61
2023-02-11T14:24:58.628Z,8.98
2023-02-11T14:27:48.569Z,8.75
2023-02-11T14:30:34.250Z,9.16
2023-02-11T14:33:19.807Z,8.93
2023-02-11T14:35:59.992Z,9.13
2023-02-11T14:38:35.822Z,9.15
2023-02-11T14:41:07.377Z,9.14
2023-02-11T14:43:37.415Z,8.67
2023-02-11T14:46:05.324Z,8.84
2023-02-11T14:48:34.584Z,8.87
2023-02-11T14:51:06.151Z,9.10
2023-02-11T14:53:34.191Z,8.91
2023-02-11T14:56:00.679Z,8.73
2023-02-11T14:58:30.116Z,8.77
2023-02-11T15:00:58.983Z,8.83
2023-02-11T15:03:36.265Z,8.72
2023-02-11T15:06:06.599Z,8.98
2023-02-11T15:08:34.865Z,8.98
2023-02-11T15:11:03.848Z,9.19
2023-02-11T15:13:31.761Z,8.99
2023-02-11T15:16:01.268Z,9.09
2023-02-11T15:18:35.618Z,9.28
2023-02-11T15:21:02.373Z,9.43
2023-02-11T15:23:30.810Z,9.21
2023-02-11T15:25:57.647Z,9.19
2023-02-11T15:28:26.052Z,9.01
2023-02-11T15:31:04.066Z,9.28
2023-02-11T15:33:31.563Z,9.14
2023-02-11T15:36:01.437Z,9.40
2023-02-11T15:38:28.707Z,9.35
2023-02-11T15:40:57.604Z,9.06
2023-02-11T15:43:24.349Z,9.31
2023-02-11T15:45:58.666Z,9.38
2023-02-11T15:48:34.058Z,9.40
2023-02-11T15:51:05.244Z,9.23
2023-02-11T15:53:34.645Z,8.99
2023-02-11T15:56:07.985Z,8.82
2023-02-11T15:58:38.024Z,8.88
2023-02-11T16:01:05.038Z,8.91
2023-02-11T16:03:31.496Z,9.23
2023-02-11T16:06:17.080Z,9.09
2023-02-11T16:08:55.567Z,9.22
2023-02-11T16:11:26.274Z,9.01
2023-02-11T16:13:52.646Z,9.14
2023-02-11T16:16:21.883Z,9.21
2023-02-11T16:19:03.386Z,8.99
2023-02-11T16:21:34.551Z,9.04
2023-02-11T16:24:01.542Z,9.02
2023-02-11T16:26:32.119Z,9.09
2023-02-11T16:29:09.818Z,8.96
2023-02-11T16:31:38.873Z,9.17
2023-02-11T16:34:13.130Z,8.96
2023-02-11T16:36:41.044Z,9.06
2023-02-11T16:39:07.590Z,9.26
2023-02-11T16:41:34.061Z,9.00
2023-02-11T16:44:00.452Z,9.05
2023-02-11T16:46:26.865Z,9.01
2023-02-11T16:48:54.080Z,9.05
2023-02-11T16:51:20.557Z,9.20
2023-02-11T16:53:48.236Z,8.96
2023-02-11T16:56:16.066Z,9.45
2023-02-11T16:58:42.812Z,9.31
2023-02-11T17:01:10.190Z,9.22
2023-02-11T17:03:39.985Z,9.23
2023-02-11T17:06:08.928Z,9.47
2023-02-11T17:08:35.321Z,9.33
2023-02-11T17:11:03.515Z,9.18
2023-02-11T17:13:29.903Z,9.07
2023-02-11T17:15:56.301Z,9.17
2023-02-11T17:18:22.752Z,8.90
2023-02-11T17:20:49.287Z,9.08
2023-02-11T17:23:15.666Z,9.23
2023-02-11T17:25:42.077Z,9.20
2023-02-11T17:28:10.114Z,9.16
2023-02-11T17:30:38.813Z,9.13
2023-02-11T17:33:05.190Z,8.99
2023-02-11T17:35:31.574Z,9.32
2023-02-11T17:37:57.944Z,9.22
2023-02-11T17:40:24.432Z,9.14
2023-02-11T17:42:50.802Z,9.36
2023-02-11T17:45:21.192Z,9.52
2023-02-11T17:47:48.654Z,9.34
2023-02-11T17:50:15.561Z,9.35
2023-02-11T17:52:41.926Z,9.56
2023-02-11T17:55:08.316Z,9.53
2023-02-11T17:57:35.130Z,9.27
2023-02-11T18:00:01.554Z,9.33
2023-02-11T18:02:29.335Z,9.22
2023-02-11T18:04:55.733Z,9.55
2023-02-11T18:07:22.124Z,9.42
2023-02-11T18:09:48.522Z,9.54
2023-02-11T18:12:14.905Z,9.79
2023-02-11T18:14:41.468Z,9.65
2023-02-11T18:17:08.245Z,9.90
2023-02-11T18:19:35.951Z,9.52
2023-02-11T18:22:02.331Z,9.45
2023-02-11T18:24:28.887Z,9.21
2023-02-11T18:26:55.233Z,9.45
2023-02-11T18:29:21.605Z,9.34
2023-02-11T18:31:48.034Z,9.48
2023-02-11T18:34:14.438Z,9.52
2023-02-11T18:36:42.160Z,9.40
2023-02-11T18:39:08.549Z,9.40
2023-02-11T18:41:34.936Z,9.47
2023-02-11T18:44:01.279Z,9.33
2023-02-11T18:46:27.727Z,9.59
2023-02-11T18:48:56.100Z,9.55
2023-02-11T18:51:23.079Z,9.72
2023-02-11T18:53:50.800Z,9.74
2023-02-11T18:56:19.738Z,9.49
2023-02-11T18:58:46.544Z,9.42
2023-02-11T19:01:14.753Z,9.39
2023-02-11T19:03:41.458Z,9.13
2023-02-11T19:06:13.807Z,9.33
2023-02-11T19:08:40.173Z,9.52
2023-02-11T19:11:07.852Z,9.60
2023-02-11T19:13:34.313Z,9.33
2023-02-11T19:16:04.164Z,9.27
2023-02-11T19:18:30.535Z,9.46
2023-02-11T19:20:56.895Z,9.59
2023-02-11T19:23:23.329Z,9.57
2023-02-11T19:25:49.813Z,9.38
2023-02-11T19:28:17.658Z,9.58
2023-02-11T19:30:44.288Z,9.44
2023-02-11T19:33:10.660Z,9.43
2023-02-11T19:35:37.085Z,9.33
2023-02-11T19:38:03.834Z,9.43
2023-02-11T19:40:30.547Z,9.22
2023-02-11T19:42:56.923Z,9.38
2023-02-11T19:45:25.128Z,9.42
2023-02-11T19:47:54.833Z,9.39
2023-02-11T19:50:21.420Z,9.42
2023-02-11T19:52:47.831Z,9.48
2023-02-11T19:55:14.349Z,9.26
2023-02-11T19:57:40.705Z,9.46
2023-02-11T20:00:08.382Z,9.60
2023-02-11T20:02:37.302Z,9.41
2023-02-11T20:05:03.981Z,9.24
2023-02-11T20:07:30.372Z,9.13
2023-02-11T20:09:56.703Z,9.42
2023-02-11T20:12:23.065Z,9.37
2023-02-11T20:14:49.496Z,9.51
2023-02-11T20:17:15.882Z,9.36
2023-02-11T20:19:43.590Z,9.45
2023-02-11T20:22:09.995Z,9.35
2023-02-11T20:24:36.376Z,9.38
2023-02-11T20:27:02.812Z,9.30
2023-02-11T20:29:29.198Z,9.23
2023-02-11T20:31:55.813Z,8.87
2023-02-11T20:34:22.497Z,9.31
2023-02-11T20:36:50.286Z,9.24
2023-02-11T20:39:17.388Z,9.04
2023-02-11T20:41:44.887Z,9.13
2023-02-11T20:44:12.767Z,9.18
2023-02-11T20:46:41.960Z,9.14
2023-02-11T20:49:10.999Z,8.99
2023-02-11T20:51:37.779Z,9.29
2023-02-11T20:54:06.314Z,9.09
2023-02-11T20:56:34.867Z,9.12
2023-02-11T20:59:02.294Z,9.28
2023-02-11T21:01:30.874Z,9.49
2023-02-11T21:03:59.758Z,9.51
2023-02-11T21:06:30.631Z,9.49
2023-02-11T21:08:57.006Z,9.33
2023-02-11T21:11:24.990Z,9.57
2023-02-11T21:13:51.802Z,9.68
2023-02-11T21:16:19.939Z,9.48
2023-02-11T21:18:46.816Z,9.60
2023-02-11T21:21:13.273Z,9.50
2023-02-11T21:23:40.230Z,9.31
2023-02-11T21:26:07.576Z,9.39
2023-02-11T21:28:35.892Z,9.34
2023-02-11T21:31:03.614Z,9.20
2023-02-11T21:33:30.985Z,9.41
2023-02-11T21:35:58.539Z,9.27
2023-02-11T21:38:26.107Z,9.31
2023-02-11T21:40:52.686Z,9.20
2023-02-11T21:43:19.544Z,9.37
2023-02-11T21:45:50.098Z,9.39
2023-02-11T21:48:17.409Z,9.23
2023-02-11T21:50:45.904Z,9.33
2023-02-11T21:53:12.573Z,9.22
2023-02-11T21:55:40.189Z,9.40
2023-02-11T21:58:06.791Z,9.57
2023-02-11T22:00:33.405Z,9.33
2023-02-11T22:03:01.405Z,9.28
2023-02-11T22:05:27.926Z,9.52
2023-02-11T22:07:54.317Z,9.75
2023-02-11T22:10:20.836Z,9.20
2023-02-11T22:12:47.774Z,9.18
2023-02-11T22:15:14.317Z,9.58
2023-02-11T22:17:40.677Z,9.17
2023-02-11T22:20:09.533Z,9.55
2023-02-11T22:22:35.899Z,9.65
2023-02-11T22:25:02.307Z,9.47
2023-02-11T22:27:28.676Z,9.52
2023-02-11T22:29:55.028Z,9.49
2023-02-11T22:32:21.415Z,9.22
2023-02-11T22:34:47.820Z,9.39
2023-02-11T22:37:15.495Z,9.42
2023-02-11T22:39:42.013Z,9.88
2023-02-11T22:42:08.955Z,9.79
2023-02-11T22:44:36.757Z,9.51
2023-02-11T22:47:03.277Z,9.46
2023-02-11T22:49:29.650Z,9.55
2023-02-11T22:51:56.061Z,9.29
2023-02-11T22:54:23.825Z,9.03
2023-02-11T22:56:51.249Z,9.34
2023-02-11T22:59:18.042Z,9.42
2023-02-11T23:01:45.075Z,9.43
2023-02-11T23:04:13.623Z,9.41
2023-02-11T23:06:40.156Z,9.76
2023-02-11T23:09:08.142Z,9.38
2023-02-11T23:11:36.033Z,9.71
2023-02-11T23:14:02.725Z,9.80
2023-02-11T23:16:31.134Z,9.74
2023-02-11T23:18:59.307Z,9.91
2023-02-11T23:21:27.891Z,9.72
2023-02-11T23:23:55.679Z,9.88
2023-02-11T23:26:22.243Z,9.21
2023-02-11T23:28:50.035Z,9.50
2023-02-11T23:31:19.005Z,9.90
2023-02-11T23:33:46.447Z,9.54
2023-02-11T23:36:13.630Z,9.85
2023-02-11T23:38:40.225Z,9.49
2023-02-11T23:41:06.986Z,9.60
2023-02-11T23:43:33.340Z,9.93
2023-02-11T23:46:01.071Z,9.92
2023-02-11T23:48:27.458Z,9.77
2023-02-11T23:50:53.888Z,9.54
2023-02-11T23:53:20.333Z,9.71
2023-02-11T23:55:46.982Z,9.43
2023-02-11T23:58:14.490Z,9.49
